Eco Sailor — SW6634 — position and weather

sailwx.info

Track history (hours):
 
Tides and Currents Weather Stations Pressure Air Temp Water Temp Dewpoint Dewpoint Depression Visibility Wind Speed Wind Dir Waves Ship Positions

Eco Sailor

Last reported at 2018-Feb-16 17:48 UTC. Time now 2018-Feb-19 06:21 UTC.
Position N 37°57' E 023°37'.

Length 42 m; draft 3.1 m.

Type: Tanker. MMSI: 237240400.

Date/timePositionNaut miles runAvg speedWind from/ knotsBaromVisibWave heightAir tempDewpointWater temp
2018-Feb-16 17:48N 37°57' E 023°37'0 0.4
2018-Feb-16 17:30N 37°57' E 023°37'0 0.0
2018-Feb-16 17:00N 37°57' E 023°37'0 0.0
2018-Feb-16 16:31N 37°57' E 023°37'0 0.0
2018-Feb-16 16:00N 37°57' E 023°37'0 0.0
2018-Feb-16 15:31N 37°57' E 023°37'0 0.0
2018-Feb-16 15:00N 37°57' E 023°37'0 0.0
2018-Feb-16 14:31N 37°57' E 023°37'0 0.7
2018-Feb-16 14:00N 37°57' E 023°36'2 4.4
2018-Feb-16 13:31N 37°57' E 023°34'0 0.7
2018-Feb-16 13:01N 37°58' E 023°34'0 0.0
2018-Feb-16 12:30N 37°58' E 023°34'0 0.0
2018-Feb-16 12:00N 37°58' E 023°34'0 0.0
2018-Feb-16 11:30N 37°58' E 023°34'0 0.0
2018-Feb-16 11:01N 37°58' E 023°34'0 0.0
2018-Feb-16 10:30N 37°58' E 023°34'0 0.1
2018-Feb-16 10:00N 37°58' E 023°34'0 0.0
2018-Feb-16 09:30N 37°58' E 023°34'0 0.0
2018-Feb-16 09:00N 37°58' E 023°34'0 0.3
2018-Feb-16 08:30N 37°58' E 023°33'0 0.3
2018-Feb-16 08:00N 37°58' E 023°34'2 3.6
2018-Feb-16 07:30N 37°57' E 023°36'1 2.0
2018-Feb-16 07:00N 37°57' E 023°37'0 0.0
2018-Feb-16 06:30N 37°57' E 023°37'0 0.0
2018-Feb-15 12:16N 37°57' E 023°37'1 2.4
2018-Feb-15 12:00N 37°57' E 023°36'2 4.2
2018-Feb-15 11:30N 37°58' E 023°34'0 0.0
2018-Feb-15 11:00N 37°58' E 023°34'0 0.0
2018-Feb-15 10:30N 37°58' E 023°34'0 0.1
2018-Feb-15 10:00N 37°58' E 023°34'0 0.1
2018-Feb-15 09:30N 37°58' E 023°34'0 0.0
2018-Feb-15 09:00N 37°58' E 023°34'0 0.0
2018-Feb-15 08:30N 37°58' E 023°34'0 0.0
2018-Feb-15 07:59N 37°58' E 023°34'0 0.0
2018-Feb-15 07:30N 37°58' E 023°34'0 0.0
2018-Feb-15 07:00N 37°58' E 023°34'1 1.4
2018-Feb-15 06:01N 37°57' E 023°35'0 5.2
2018-Feb-15 06:00N 37°57' E 023°35'1 0.1
2018-Feb-14 15:32N 37°58' E 023°34'0 0.0
2018-Feb-14 15:30N 37°58' E 023°34'0 0.0
2018-Feb-14 15:00N 37°58' E 023°34'0 0.0
2018-Feb-14 14:30N 37°58' E 023°34'0 0.0
2018-Feb-14 14:00N 37°58' E 023°34'0 0.0
2018-Feb-14 13:30N 37°58' E 023°34'0 0.0
2018-Feb-14 13:00N 37°58' E 023°34'0 0.0
2018-Feb-14 12:30N 37°58' E 023°34'0 0.0
2018-Feb-14 12:00N 37°58' E 023°34'0 0.0
2018-Feb-14 11:30N 37°58' E 023°34'0 0.0
2018-Feb-14 11:00N 37°58' E 023°34'0 0.1
2018-Feb-14 10:30N 37°58' E 023°34'0 0.0
2018-Feb-14 10:00N 37°58' E 023°34'0 0.0
2018-Feb-14 09:30N 37°58' E 023°34'0 0.1
2018-Feb-14 08:59N 37°58' E 023°34'2 5.2
2018-Feb-14 08:30N 37°57' E 023°37'0 0.2
2018-Feb-14 08:00N 37°57' E 023°37'0 0.0
2018-Feb-14 07:30N 37°57' E 023°37'0 0.0
2018-Feb-14 07:00N 37°57' E 023°37'0 0.0
2018-Feb-14 06:30N 37°57' E 023°37'0 0.0
2018-Feb-13 15:34N 37°57' E 023°37'0 0.4
2018-Feb-13 15:30N 37°57' E 023°37'3 6.0
2018-Feb-13 15:00N 37°57' E 023°33'0 0.2
2018-Feb-13 14:30N 37°57' E 023°33'0 0.0
2018-Feb-13 14:00N 37°57' E 023°33'0 0.0
2018-Feb-13 13:30N 37°57' E 023°33'0 0.1
2018-Feb-13 13:00N 37°57' E 023°33'0 0.1
2018-Feb-13 12:30N 37°57' E 023°33'0 0.0
2018-Feb-13 12:00N 37°57' E 023°33'0 0.0
2018-Feb-13 11:30N 37°57' E 023°33'0 0.0
2018-Feb-13 11:00N 37°57' E 023°33'0 0.0
2018-Feb-13 10:30N 37°57' E 023°33'0 0.0
2018-Feb-13 10:01N 37°57' E 023°33'0 0.0
2018-Feb-13 09:30N 37°57' E 023°33'0 0.0
2018-Feb-13 09:00N 37°57' E 023°33'0 0.0
2018-Feb-13 08:30N 37°57' E 023°33'0 0.0
2018-Feb-13 08:00N 37°57' E 023°33'0 0.0
2018-Feb-13 07:30N 37°57' E 023°33'0 0.0
2018-Feb-13 07:00N 37°57' E 023°33'2 4.4
2018-Feb-13 06:30N 37°57' E 023°36'0 0.0
2018-Feb-13 06:00N 37°57' E 023°36'1 1.0
2018-Feb-13 05:30N 37°57' E 023°36'0 0.0
2018-Feb-13 05:00N 37°57' E 023°36'0 0.0
2018-Feb-13 04:30N 37°57' E 023°36'0 0.0
2018-Feb-13 04:00N 37°57' E 023°36'0 0.0
2018-Feb-13 03:30N 37°57' E 023°36'0 0.0
2018-Feb-13 03:00N 37°57' E 023°36'0 0.0
2018-Feb-13 02:30N 37°57' E 023°36'0 0.0
2018-Feb-13 02:00N 37°57' E 023°36'0 0.0
2018-Feb-13 01:30N 37°57' E 023°36'1 2.3
2018-Feb-13 00:59N 37°57' E 023°37'0 0.0
2018-Feb-12 14:43N 37°57' E 023°37'0 0.2
2018-Feb-12 14:29N 37°57' E 023°37'0 0.0
2018-Feb-12 14:00N 37°57' E 023°37'0 0.0
2018-Feb-12 13:30N 37°57' E 023°37'0 0.0
2018-Feb-12 13:00N 37°57' E 023°37'0 0.1
2018-Feb-12 12:22N 37°57' E 023°37'0 0.0
2018-Feb-12 08:15N 37°57' E 023°37'0 0.0
2018-Feb-12 08:00N 37°57' E 023°37'0 0.0
2018-Feb-12 07:30N 37°57' E 023°37'0 0.0
2018-Feb-12 07:00N 37°57' E 023°37'0 0.0
2018-Feb-12 06:30N 37°57' E 023°37'0 0.0
2018-Feb-11 16:10N 37°57' E 023°37'0 2.5
2018-Feb-11 16:01N 37°56' E 023°37'4 7.3
2018-Feb-11 15:31N 37°54' E 023°33'3 5.1
2018-Feb-11 15:01N 37°53' E 023°31'0 0.0
2018-Feb-11 14:31N 37°53' E 023°31'0 0.0
2018-Feb-11 14:01N 37°53' E 023°31'0 0.0
2018-Feb-11 13:31N 37°53' E 023°31'0 0.0
2018-Feb-11 13:01N 37°53' E 023°31'0 0.0
2018-Feb-11 12:30N 37°53' E 023°31'0 0.0
2018-Feb-11 12:01N 37°53' E 023°31'0 0.3
2018-Feb-11 11:31N 37°53' E 023°31'0 0.1
2018-Feb-11 11:01N 37°53' E 023°31'0 0.1
2018-Feb-11 10:31N 37°53' E 023°31'1 1.2
2018-Feb-11 10:00N 37°53' E 023°31'4 7.1
2018-Feb-11 09:30N 37°55' E 023°35'2 4.6
2018-Feb-11 09:00N 37°57' E 023°37'6 0.1
2018-Feb-09 11:30N 38°01' E 023°31'0 0.0
2018-Feb-09 11:00N 38°01' E 023°31'0 0.3
2018-Feb-09 09:30N 38°01' E 023°32'4 7.0
2018-Feb-09 09:00N 37°58' E 023°33'3 6.2
2018-Feb-09 08:30N 37°57' E 023°37'0 0.0
2018-Feb-09 07:30N 37°57' E 023°37'0 0.0
2018-Feb-09 07:00N 37°57' E 023°37'0 0.0
2018-Feb-09 06:30N 37°57' E 023°37'0 0.0
2018-Feb-09 06:00N 37°57' E 023°37'0 0.0
2018-Feb-08 17:00N 37°57' E 023°37'3 2.7
2018-Feb-08 16:00N 37°58' E 023°34'0 0.0
2018-Feb-08 15:30N 37°58' E 023°34'0 0.0
2018-Feb-08 14:00N 37°58' E 023°34'0 0.0
2018-Feb-08 13:00N 37°58' E 023°34'0 0.1
2018-Feb-08 12:30N 37°58' E 023°34'0 0.0
2018-Feb-08 12:00N 37°58' E 023°34'0 0.0
2018-Feb-08 10:30N 37°58' E 023°34'0 0.0
2018-Feb-08 10:00N 37°58' E 023°34'0 0.0
2018-Feb-08 09:30N 37°58' E 023°34'0 0.0
2018-Feb-08 09:00N 37°58' E 023°34'0 0.0
2018-Feb-08 08:30N 37°58' E 023°34'0 0.0
2018-Feb-08 08:00N 37°58' E 023°34'0 0.0
2018-Feb-08 07:30N 37°58' E 023°34'2 1.9
2018-Feb-08 06:30N 37°57' E 023°36'6 0.3
2018-Feb-07 09:30N 38°01' E 023°32'6 6.1
2018-Feb-07 08:30N 37°57' E 023°37'0 0.4
2018-Feb-07 08:00N 37°57' E 023°37'0 0.0
2018-Feb-07 07:30N 37°57' E 023°37'0 0.0
2018-Feb-07 07:00N 37°57' E 023°37'0 0.0
2018-Feb-07 06:30N 37°57' E 023°37'  
Track history (hours):
 
Tides and Currents Weather Stations Pressure Air Temp Water Temp Dewpoint Dewpoint Depression Visibility Wind Speed Wind Dir Waves Ship Positions

Eco Sailor

Last reported at 2018-Feb-16 17:48 UTC. Time now 2018-Feb-19 06:21 UTC.
Position N 37°57' E 023°37'.

Length 42 m; draft 3.1 m.

Type: Tanker. MMSI: 237240400.

Date/timePositionNaut miles runAvg speedWind from/ knotsBaromVisibWave heightAir tempDewpointWater temp
2018-Feb-16 17:48N 37°57' E 023°37'0 0.4
2018-Feb-16 17:30N 37°57' E 023°37'0 0.0
2018-Feb-16 17:00N 37°57' E 023°37'0 0.0
2018-Feb-16 16:31N 37°57' E 023°37'0 0.0
2018-Feb-16 16:00N 37°57' E 023°37'0 0.0
2018-Feb-16 15:31N 37°57' E 023°37'0 0.0
2018-Feb-16 15:00N 37°57' E 023°37'0 0.0
2018-Feb-16 14:31N 37°57' E 023°37'0 0.7
2018-Feb-16 14:00N 37°57' E 023°36'2 4.4
2018-Feb-16 13:31N 37°57' E 023°34'0 0.7
2018-Feb-16 13:01N 37°58' E 023°34'0 0.0
2018-Feb-16 12:30N 37°58' E 023°34'0 0.0
2018-Feb-16 12:00N 37°58' E 023°34'0 0.0
2018-Feb-16 11:30N 37°58' E 023°34'0 0.0
2018-Feb-16 11:01N 37°58' E 023°34'0 0.0
2018-Feb-16 10:30N 37°58' E 023°34'0 0.1
2018-Feb-16 10:00N 37°58' E 023°34'0 0.0
2018-Feb-16 09:30N 37°58' E 023°34'0 0.0
2018-Feb-16 09:00N 37°58' E 023°34'0 0.3
2018-Feb-16 08:30N 37°58' E 023°33'0 0.3
2018-Feb-16 08:00N 37°58' E 023°34'2 3.6
2018-Feb-16 07:30N 37°57' E 023°36'1 2.0
2018-Feb-16 07:00N 37°57' E 023°37'0 0.0
2018-Feb-16 06:30N 37°57' E 023°37'0 0.0
2018-Feb-15 12:16N 37°57' E 023°37'1 2.4
2018-Feb-15 12:00N 37°57' E 023°36'2 4.2
2018-Feb-15 11:30N 37°58' E 023°34'0 0.0
2018-Feb-15 11:00N 37°58' E 023°34'0 0.0
2018-Feb-15 10:30N 37°58' E 023°34'0 0.1
2018-Feb-15 10:00N 37°58' E 023°34'0 0.1
2018-Feb-15 09:30N 37°58' E 023°34'0 0.0
2018-Feb-15 09:00N 37°58' E 023°34'0 0.0
2018-Feb-15 08:30N 37°58' E 023°34'0 0.0
2018-Feb-15 07:59N 37°58' E 023°34'0 0.0
2018-Feb-15 07:30N 37°58' E 023°34'0 0.0
2018-Feb-15 07:00N 37°58' E 023°34'1 1.4
2018-Feb-15 06:01N 37°57' E 023°35'0 5.2
2018-Feb-15 06:00N 37°57' E 023°35'1 0.1
2018-Feb-14 15:32N 37°58' E 023°34'0 0.0
2018-Feb-14 15:30N 37°58' E 023°34'0 0.0
2018-Feb-14 15:00N 37°58' E 023°34'0 0.0
2018-Feb-14 14:30N 37°58' E 023°34'0 0.0
2018-Feb-14 14:00N 37°58' E 023°34'0 0.0
2018-Feb-14 13:30N 37°58' E 023°34'0 0.0
2018-Feb-14 13:00N 37°58' E 023°34'0 0.0
2018-Feb-14 12:30N 37°58' E 023°34'0 0.0
2018-Feb-14 12:00N 37°58' E 023°34'0 0.0
2018-Feb-14 11:30N 37°58' E 023°34'0 0.0
2018-Feb-14 11:00N 37°58' E 023°34'0 0.1
2018-Feb-14 10:30N 37°58' E 023°34'0 0.0
2018-Feb-14 10:00N 37°58' E 023°34'0 0.0
2018-Feb-14 09:30N 37°58' E 023°34'0 0.1
2018-Feb-14 08:59N 37°58' E 023°34'2 5.2
2018-Feb-14 08:30N 37°57' E 023°37'0 0.2
2018-Feb-14 08:00N 37°57' E 023°37'0 0.0
2018-Feb-14 07:30N 37°57' E 023°37'0 0.0
2018-Feb-14 07:00N 37°57' E 023°37'0 0.0
2018-Feb-14 06:30N 37°57' E 023°37'0 0.0
2018-Feb-13 15:34N 37°57' E 023°37'0 0.4
2018-Feb-13 15:30N 37°57' E 023°37'3 6.0
2018-Feb-13 15:00N 37°57' E 023°33'0 0.2
2018-Feb-13 14:30N 37°57' E 023°33'0 0.0
2018-Feb-13 14:00N 37°57' E 023°33'0 0.0
2018-Feb-13 13:30N 37°57' E 023°33'0 0.1
2018-Feb-13 13:00N 37°57' E 023°33'0 0.1
2018-Feb-13 12:30N 37°57' E 023°33'0 0.0
2018-Feb-13 12:00N 37°57' E 023°33'0 0.0
2018-Feb-13 11:30N 37°57' E 023°33'0 0.0
2018-Feb-13 11:00N 37°57' E 023°33'0 0.0
2018-Feb-13 10:30N 37°57' E 023°33'0 0.0
2018-Feb-13 10:01N 37°57' E 023°33'0 0.0
2018-Feb-13 09:30N 37°57' E 023°33'0 0.0
2018-Feb-13 09:00N 37°57' E 023°33'0 0.0
2018-Feb-13 08:30N 37°57' E 023°33'0 0.0
2018-Feb-13 08:00N 37°57' E 023°33'0 0.0
2018-Feb-13 07:30N 37°57' E 023°33'0 0.0
2018-Feb-13 07:00N 37°57' E 023°33'2 4.4
2018-Feb-13 06:30N 37°57' E 023°36'0 0.0
2018-Feb-13 06:00N 37°57' E 023°36'1 1.0
2018-Feb-13 05:30N 37°57' E 023°36'0 0.0
2018-Feb-13 05:00N 37°57' E 023°36'0 0.0
2018-Feb-13 04:30N 37°57' E 023°36'0 0.0
2018-Feb-13 04:00N 37°57' E 023°36'0 0.0
2018-Feb-13 03:30N 37°57' E 023°36'0 0.0
2018-Feb-13 03:00N 37°57' E 023°36'0 0.0
2018-Feb-13 02:30N 37°57' E 023°36'0 0.0
2018-Feb-13 02:00N 37°57' E 023°36'0 0.0
2018-Feb-13 01:30N 37°57' E 023°36'1 2.3
2018-Feb-13 00:59N 37°57' E 023°37'0 0.0
2018-Feb-12 14:43N 37°57' E 023°37'0 0.2
2018-Feb-12 14:29N 37°57' E 023°37'0 0.0
2018-Feb-12 14:00N 37°57' E 023°37'0 0.0
2018-Feb-12 13:30N 37°57' E 023°37'0 0.0
2018-Feb-12 13:00N 37°57' E 023°37'0 0.1
2018-Feb-12 12:22N 37°57' E 023°37'0 0.0
2018-Feb-12 08:15N 37°57' E 023°37'0 0.0
2018-Feb-12 08:00N 37°57' E 023°37'0 0.0
2018-Feb-12 07:30N 37°57' E 023°37'0 0.0
2018-Feb-12 07:00N 37°57' E 023°37'0 0.0
2018-Feb-12 06:30N 37°57' E 023°37'0 0.0
2018-Feb-11 16:10N 37°57' E 023°37'0 2.5
2018-Feb-11 16:01N 37°56' E 023°37'4 7.3
2018-Feb-11 15:31N 37°54' E 023°33'3 5.1
2018-Feb-11 15:01N 37°53' E 023°31'0 0.0
2018-Feb-11 14:31N 37°53' E 023°31'0 0.0
2018-Feb-11 14:01N 37°53' E 023°31'0 0.0
2018-Feb-11 13:31N 37°53' E 023°31'0 0.0
2018-Feb-11 13:01N 37°53' E 023°31'0 0.0
2018-Feb-11 12:30N 37°53' E 023°31'0 0.0
2018-Feb-11 12:01N 37°53' E 023°31'0 0.3
2018-Feb-11 11:31N 37°53' E 023°31'0 0.1
2018-Feb-11 11:01N 37°53' E 023°31'0 0.1
2018-Feb-11 10:31N 37°53' E 023°31'1 1.2
2018-Feb-11 10:00N 37°53' E 023°31'4 7.1
2018-Feb-11 09:30N 37°55' E 023°35'2 4.6
2018-Feb-11 09:00N 37°57' E 023°37'6 0.1
2018-Feb-09 11:30N 38°01' E 023°31'0 0.0
2018-Feb-09 11:00N 38°01' E 023°31'0 0.3
2018-Feb-09 09:30N 38°01' E 023°32'4 7.0
2018-Feb-09 09:00N 37°58' E 023°33'3 6.2
2018-Feb-09 08:30N 37°57' E 023°37'0 0.0
2018-Feb-09 07:30N 37°57' E 023°37'0 0.0
2018-Feb-09 07:00N 37°57' E 023°37'0 0.0
2018-Feb-09 06:30N 37°57' E 023°37'0 0.0
2018-Feb-09 06:00N 37°57' E 023°37'0 0.0
2018-Feb-08 17:00N 37°57' E 023°37'3 2.7
2018-Feb-08 16:00N 37°58' E 023°34'0 0.0
2018-Feb-08 15:30N 37°58' E 023°34'0 0.0
2018-Feb-08 14:00N 37°58' E 023°34'0 0.0
2018-Feb-08 13:00N 37°58' E 023°34'0 0.1
2018-Feb-08 12:30N 37°58' E 023°34'0 0.0
2018-Feb-08 12:00N 37°58' E 023°34'0 0.0
2018-Feb-08 10:30N 37°58' E 023°34'0 0.0
2018-Feb-08 10:00N 37°58' E 023°34'0 0.0
2018-Feb-08 09:30N 37°58' E 023°34'0 0.0
2018-Feb-08 09:00N 37°58' E 023°34'0 0.0
2018-Feb-08 08:30N 37°58' E 023°34'0 0.0
2018-Feb-08 08:00N 37°58' E 023°34'0 0.0
2018-Feb-08 07:30N 37°58' E 023°34'2 1.9
2018-Feb-08 06:30N 37°57' E 023°36'6 0.3
2018-Feb-07 09:30N 38°01' E 023°32'6 6.1
2018-Feb-07 08:30N 37°57' E 023°37'0 0.4
2018-Feb-07 08:00N 37°57' E 023°37'0 0.0
2018-Feb-07 07:30N 37°57' E 023°37'0 0.0
2018-Feb-07 07:00N 37°57' E 023°37'0 0.0
2018-Feb-07 06:30N 37°57' E 023°37'  

Dump ship's entire track history